sensor_id;sensor_type;location;lat;lon;timestamp;pressure;altitude;pressure_sealevel;temperature;humidity
19751;BME280;4663;49.120;9.730;2022-09-02T00:01:30;98191.75;;;9.49;90.88
19751;BME280;4663;49.120;9.730;2022-09-02T00:04:00;98188.44;;;9.31;91.96
19751;BME280;4663;49.120;9.730;2022-09-02T00:06:27;98187.19;;;9.50;89.89
19751;BME280;4663;49.120;9.730;2022-09-02T00:08:54;98177.75;;;9.54;89.33
19751;BME280;4663;49.120;9.730;2022-09-02T00:11:24;98176.69;;;9.64;89.20
19751;BME280;4663;49.120;9.730;2022-09-02T00:13:50;98181.94;;;9.57;90.15
19751;BME280;4663;49.120;9.730;2022-09-02T00:16:16;98192.72;;;9.57;90.14
19751;BME280;4663;49.120;9.730;2022-09-02T00:18:42;98175.06;;;9.54;89.64
19751;BME280;4663;49.120;9.730;2022-09-02T00:21:09;98176.09;;;9.45;89.85
19751;BME280;4663;49.120;9.730;2022-09-02T00:23:38;98169.28;;;9.26;91.03
19751;BME280;4663;49.120;9.730;2022-09-02T00:26:04;98168.06;;;9.28;91.14
19751;BME280;4663;49.120;9.730;2022-09-02T00:28:30;98169.34;;;9.49;89.81
19751;BME280;4663;49.120;9.730;2022-09-02T00:30:55;98166.84;;;9.39;89.46
19751;BME280;4663;49.120;9.730;2022-09-02T00:33:21;98171.25;;;9.40;90.16
19751;BME280;4663;49.120;9.730;2022-09-02T00:35:47;98166.09;;;9.22;90.70
19751;BME280;4663;49.120;9.730;2022-09-02T00:38:13;98158.81;;;9.31;90.47
19751;BME280;4663;49.120;9.730;2022-09-02T00:40:44;98167.94;;;9.21;90.79
19751;BME280;4663;49.120;9.730;2022-09-02T00:43:09;98164.22;;;9.22;90.11
19751;BME280;4663;49.120;9.730;2022-09-02T00:45:35;98161.34;;;9.24;89.46
19751;BME280;4663;49.120;9.730;2022-09-02T00:48:04;98160.16;;;9.27;90.32
19751;BME280;4663;49.120;9.730;2022-09-02T00:50:32;98154.44;;;9.30;89.54
19751;BME280;4663;49.120;9.730;2022-09-02T00:53:04;98154.25;;;9.31;89.29
19751;BME280;4663;49.120;9.730;2022-09-02T00:55:35;98168.53;;;8.50;93.21
19751;BME280;4663;49.120;9.730;2022-09-02T00:58:08;98160.59;;;8.82;91.17
19751;BME280;4663;49.120;9.730;2022-09-02T01:00:40;98154.34;;;8.90;90.02
19751;BME280;4663;49.120;9.730;2022-09-02T01:03:10;98166.34;;;8.70;92.45
19751;BME280;4663;49.120;9.730;2022-09-02T01:05:39;98165.81;;;8.83;91.46
19751;BME280;4663;49.120;9.730;2022-09-02T01:08:09;98148.97;;;8.90;91.42
19751;BME280;4663;49.120;9.730;2022-09-02T01:10:35;98158.03;;;9.05;90.11
19751;BME280;4663;49.120;9.730;2022-09-02T01:13:10;98162.13;;;8.84;91.19
19751;BME280;4663;49.120;9.730;2022-09-02T01:15:39;98167.53;;;8.68;92.04
19751;BME280;4663;49.120;9.730;2022-09-02T01:18:08;98165.13;;;8.81;92.24
19751;BME280;4663;49.120;9.730;2022-09-02T01:20:36;98159.94;;;8.63;92.18
19751;BME280;4663;49.120;9.730;2022-09-02T01:23:01;98167.50;;;8.76;91.15
19751;BME280;4663;49.120;9.730;2022-09-02T01:25:30;98158.75;;;8.91;91.00
19751;BME280;4663;49.120;9.730;2022-09-02T01:28:11;98154.91;;;8.77;90.44
19751;BME280;4663;49.120;9.730;2022-09-02T01:30:39;98162.25;;;8.91;89.92
19751;BME280;4663;49.120;9.730;2022-09-02T01:33:07;98159.94;;;8.88;89.70
19751;BME280;4663;49.120;9.730;2022-09-02T01:35:32;98161.91;;;8.94;90.34
19751;BME280;4663;49.120;9.730;2022-09-02T01:37:58;98163.63;;;8.79;89.58
19751;BME280;4663;49.120;9.730;2022-09-02T01:40:25;98158.75;;;8.82;89.53
19751;BME280;4663;49.120;9.730;2022-09-02T01:42:55;98153.38;;;8.82;90.51
19751;BME280;4663;49.120;9.730;2022-09-02T01:45:21;98153.75;;;8.63;90.70
19751;BME280;4663;49.120;9.730;2022-09-02T01:47:46;98160.66;;;8.57;91.54
19751;BME280;4663;49.120;9.730;2022-09-02T01:50:12;98151.06;;;8.54;91.51
19751;BME280;4663;49.120;9.730;2022-09-02T01:52:38;98154.94;;;8.43;91.66
19751;BME280;4663;49.120;9.730;2022-09-02T01:55:04;98149.53;;;8.68;90.54
19751;BME280;4663;49.120;9.730;2022-09-02T01:57:30;98153.41;;;8.49;90.31
19751;BME280;4663;49.120;9.730;2022-09-02T01:59:55;98149.69;;;8.50;90.76
19751;BME280;4663;49.120;9.730;2022-09-02T02:02:22;98148.03;;;8.32;91.73
19751;BME280;4663;49.120;9.730;2022-09-02T02:04:48;98146.84;;;8.35;91.92
19751;BME280;4663;49.120;9.730;2022-09-02T02:07:16;98150.25;;;8.37;91.02
19751;BME280;4663;49.120;9.730;2022-09-02T02:09:42;98150.06;;;8.39;89.86
19751;BME280;4663;49.120;9.730;2022-09-02T02:12:08;98152.75;;;8.22;91.64
19751;BME280;4663;49.120;9.730;2022-09-02T02:14:34;98149.06;;;8.40;89.89
19751;BME280;4663;49.120;9.730;2022-09-02T02:17:00;98157.78;;;8.33;91.33
19751;BME280;4663;49.120;9.730;2022-09-02T02:19:26;98161.31;;;8.17;91.19
19751;BME280;4663;49.120;9.730;2022-09-02T02:21:52;98158.31;;;8.29;91.76
19751;BME280;4663;49.120;9.730;2022-09-02T02:24:17;98157.94;;;8.07;92.16
19751;BME280;4663;49.120;9.730;2022-09-02T02:26:43;98157.94;;;8.07;91.26
19751;BME280;4663;49.120;9.730;2022-09-02T02:29:10;98150.91;;;8.23;91.34
19751;BME280;4663;49.120;9.730;2022-09-02T02:31:35;98159.94;;;7.97;92.74
19751;BME280;4663;49.120;9.730;2022-09-02T02:34:01;98160.31;;;8.10;92.45
19751;BME280;4663;49.120;9.730;2022-09-02T02:36:27;98155.94;;;8.17;89.90
19751;BME280;4663;49.120;9.730;2022-09-02T02:38:53;98164.50;;;8.21;90.26
19751;BME280;4663;49.120;9.730;2022-09-02T02:41:18;98157.94;;;8.24;90.02
19751;BME280;4663;49.120;9.730;2022-09-02T02:43:44;98160.63;;;8.24;91.34
19751;BME280;4663;49.120;9.730;2022-09-02T02:46:12;98165.19;;;8.23;90.73
19751;BME280;4663;49.120;9.730;2022-09-02T02:48:38;98159.13;;;8.04;91.48
19751;BME280;4663;49.120;9.730;2022-09-02T02:51:04;98157.25;;;7.97;92.09
19751;BME280;4663;49.120;9.730;2022-09-02T02:53:31;98154.06;;;7.93;90.88
19751;BME280;4663;49.120;9.730;2022-09-02T02:55:57;98151.72;;;7.98;90.68
19751;BME280;4663;49.120;9.730;2022-09-02T02:58:23;98153.16;;;7.76;90.94
19751;BME280;4663;49.120;9.730;2022-09-02T03:00:49;98161.25;;;7.84;91.60
19751;BME280;4663;49.120;9.730;2022-09-02T03:03:15;98157.00;;;7.65;91.82
19751;BME280;4663;49.120;9.730;2022-09-02T03:05:44;98149.09;;;7.63;91.89
19751;BME280;4663;49.120;9.730;2022-09-02T03:08:10;98145.25;;;7.66;91.69
19751;BME280;4663;49.120;9.730;2022-09-02T03:10:37;98140.19;;;7.63;92.39
19751;BME280;4663;49.120;9.730;2022-09-02T03:13:06;98143.50;;;7.40;93.65
19751;BME280;4663;49.120;9.730;2022-09-02T03:15:33;98146.41;;;7.55;93.25
19751;BME280;4663;49.120;9.730;2022-09-02T03:17:59;98135.31;;;7.50;91.69
19751;BME280;4663;49.120;9.730;2022-09-02T03:20:24;98138.19;;;7.56;92.88
19751;BME280;4663;49.120;9.730;2022-09-02T03:22:53;98140.78;;;7.32;94.81
19751;BME280;4663;49.120;9.730;2022-09-02T03:25:19;98130.34;;;7.20;95.46
19751;BME280;4663;49.120;9.730;2022-09-02T03:27:46;98130.75;;;7.50;93.10
19751;BME280;4663;49.120;9.730;2022-09-02T03:30:16;98127.38;;;7.40;93.69
19751;BME280;4663;49.120;9.730;2022-09-02T03:32:42;98131.03;;;7.30;93.81
19751;BME280;4663;49.120;9.730;2022-09-02T03:35:10;98133.09;;;7.45;93.95
19751;BME280;4663;49.120;9.730;2022-09-02T03:37:36;98132.78;;;7.48;93.58
19751;BME280;4663;49.120;9.730;2022-09-02T03:40:08;98125.38;;;7.42;93.66
19751;BME280;4663;49.120;9.730;2022-09-02T03:42:34;98125.03;;;7.45;92.54
19751;BME280;4663;49.120;9.730;2022-09-02T03:44:59;98121.34;;;7.46;92.31
19751;BME280;4663;49.120;9.730;2022-09-02T03:47:25;98127.88;;;7.43;92.40
19751;BME280;4663;49.120;9.730;2022-09-02T03:49:53;98130.72;;;7.42;92.25
19751;BME280;4663;49.120;9.730;2022-09-02T03:52:19;98129.53;;;7.36;92.55
19751;BME280;4663;49.120;9.730;2022-09-02T03:54:44;98125.88;;;7.37;92.25
19751;BME280;4663;49.120;9.730;2022-09-02T03:57:10;98127.00;;;7.35;93.06
19751;BME280;4663;49.120;9.730;2022-09-02T03:59:35;98129.81;;;7.25;93.57
19751;BME280;4663;49.120;9.730;2022-09-02T04:02:01;98126.66;;;7.29;92.53
19751;BME280;4663;49.120;9.730;2022-09-02T04:04:27;98124.16;;;7.36;92.72
19751;BME280;4663;49.120;9.730;2022-09-02T04:06:53;98124.97;;;7.20;92.96
19751;BME280;4663;49.120;9.730;2022-09-02T04:09:18;98118.59;;;7.21;92.28
19751;BME280;4663;49.120;9.730;2022-09-02T04:11:43;98124.41;;;7.08;92.93
19751;BME280;4663;49.120;9.730;2022-09-02T04:14:09;98124.03;;;7.03;92.82
19751;BME280;4663;49.120;9.730;2022-09-02T04:23:19;98129.00;;;7.24;90.93
19751;BME280;4663;49.120;9.730;2022-09-02T04:25:44;98126.47;;;7.23;90.05
19751;BME280;4663;49.120;9.730;2022-09-02T04:28:10;98117.94;;;7.27;90.41
19751;BME280;4663;49.120;9.730;2022-09-02T04:30:38;98117.69;;;7.12;91.48
19751;BME280;4663;49.120;9.730;2022-09-02T04:33:04;98120.78;;;7.26;91.59
19751;BME280;4663;49.120;9.730;2022-09-02T04:35:29;98121.31;;;7.38;90.00
19751;BME280;4663;49.120;9.730;2022-09-02T04:37:55;98122.16;;;7.30;90.64
19751;BME280;4663;49.120;9.730;2022-09-02T04:40:20;98125.13;;;7.18;90.75
19751;BME280;4663;49.120;9.730;2022-09-02T04:42:45;98124.94;;;7.12;92.24
19751;BME280;4663;49.120;9.730;2022-09-02T04:45:11;98131.13;;;7.12;91.87
19751;BME280;4663;49.120;9.730;2022-09-02T04:47:36;98124.13;;;7.20;91.60
19751;BME280;4663;49.120;9.730;2022-09-02T04:50:02;98121.75;;;7.16;91.74
19751;BME280;4663;49.120;9.730;2022-09-02T04:52:28;98125.25;;;7.09;92.13
19751;BME280;4663;49.120;9.730;2022-09-02T04:54:53;98126.88;;;7.01;92.35
19751;BME280;4663;49.120;9.730;2022-09-02T04:57:19;98128.34;;;7.30;90.86
19751;BME280;4663;49.120;9.730;2022-09-02T04:59:44;98129.25;;;7.48;90.55
19751;BME280;4663;49.120;9.730;2022-09-02T05:02:10;98133.41;;;7.34;90.66
19751;BME280;4663;49.120;9.730;2022-09-02T05:04:36;98132.94;;;7.03;92.01
19751;BME280;4663;49.120;9.730;2022-09-02T05:07:02;98137.00;;;7.08;92.68
19751;BME280;4663;49.120;9.730;2022-09-02T05:09:29;98139.88;;;7.14;92.84
19751;BME280;4663;49.120;9.730;2022-09-02T05:11:55;98138.56;;;7.27;92.66
19751;BME280;4663;49.120;9.730;2022-09-02T05:14:27;98139.22;;;7.21;92.26
19751;BME280;4663;49.120;9.730;2022-09-02T05:16:53;98143.38;;;7.15;92.68
19751;BME280;4663;49.120;9.730;2022-09-02T05:19:21;98135.31;;;7.15;92.63
19751;BME280;4663;49.120;9.730;2022-09-02T05:21:49;98135.91;;;7.35;92.59
19751;BME280;4663;49.120;9.730;2022-09-02T05:24:15;98136.84;;;6.83;94.13
19751;BME280;4663;49.120;9.730;2022-09-02T05:26:42;98140.44;;;6.65;96.00
19751;BME280;4663;49.120;9.730;2022-09-02T05:29:10;98141.66;;;6.71;95.82
19751;BME280;4663;49.120;9.730;2022-09-02T05:31:37;98144.53;;;6.51;96.93
19751;BME280;4663;49.120;9.730;2022-09-02T05:34:03;98139.88;;;6.79;96.65
19751;BME280;4663;49.120;9.730;2022-09-02T05:36:29;98132.88;;;6.95;96.53
19751;BME280;4663;49.120;9.730;2022-09-02T05:38:57;98140.31;;;7.01;95.45
19751;BME280;4663;49.120;9.730;2022-09-02T05:41:23;98139.13;;;7.39;94.89
19751;BME280;4663;49.120;9.730;2022-09-02T05:43:54;98140.06;;;7.21;95.43
19751;BME280;4663;49.120;9.730;2022-09-02T05:46:22;98144.84;;;7.44;93.93
19751;BME280;4663;49.120;9.730;2022-09-02T05:48:49;98150.56;;;7.41;94.45
19751;BME280;4663;49.120;9.730;2022-09-02T05:51:58;98147.59;;;7.61;93.73
19751;BME280;4663;49.120;9.730;2022-09-02T05:54:26;98135.59;;;7.38;93.40
19751;BME280;4663;49.120;9.730;2022-09-02T05:56:57;98136.91;;;7.26;94.88
19751;BME280;4663;49.120;9.730;2022-09-02T05:59:24;98140.19;;;7.63;93.86
19751;BME280;4663;49.120;9.730;2022-09-02T06:01:51;98139.13;;;7.90;93.65
19751;BME280;4663;49.120;9.730;2022-09-02T06:04:17;98143.00;;;8.13;92.19
19751;BME280;4663;49.120;9.730;2022-09-02T06:06:43;98138.63;;;8.20;92.51
19751;BME280;4663;49.120;9.730;2022-09-02T06:09:11;98140.47;;;7.94;92.26
19751;BME280;4663;49.120;9.730;2022-09-02T06:11:39;98144.84;;;8.12;92.34
19751;BME280;4663;49.120;9.730;2022-09-02T06:14:08;98151.28;;;7.60;94.12
19751;BME280;4663;49.120;9.730;2022-09-02T06:16:34;98147.19;;;8.32;92.30
19751;BME280;4663;49.120;9.730;2022-09-02T06:18:59;98150.56;;;8.42;91.96
19751;BME280;4663;49.120;9.730;2022-09-02T06:21:28;98139.38;;;9.04;89.29
19751;BME280;4663;49.120;9.730;2022-09-02T06:23:53;98144.00;;;8.53;90.67
19751;BME280;4663;49.120;9.730;2022-09-02T06:26:19;98147.69;;;8.02;93.20
19751;BME280;4663;49.120;9.730;2022-09-02T06:28:44;98133.66;;;8.98;91.34
19751;BME280;4663;49.120;9.730;2022-09-02T06:31:16;98134.47;;;9.16;89.99
19751;BME280;4663;49.120;9.730;2022-09-02T06:33:43;98129.16;;;10.41;88.13
19751;BME280;4663;49.120;9.730;2022-09-02T06:36:12;98132.28;;;10.83;85.08
19751;BME280;4663;49.120;9.730;2022-09-02T06:38:40;98127.63;;;11.07;83.77
19751;BME280;4663;49.120;9.730;2022-09-02T06:41:10;98133.72;;;11.24;82.57
19751;BME280;4663;49.120;9.730;2022-09-02T06:43:35;98128.19;;;11.48;81.64
19751;BME280;4663;49.120;9.730;2022-09-02T06:46:01;98133.91;;;11.75;81.85
19751;BME280;4663;49.120;9.730;2022-09-02T06:48:26;98128.31;;;12.42;79.94
19751;BME280;4663;49.120;9.730;2022-09-02T06:50:52;98132.84;;;12.92;77.03
19751;BME280;4663;49.120;9.730;2022-09-02T06:53:18;98121.03;;;13.42;75.17
19751;BME280;4663;49.120;9.730;2022-09-02T06:55:44;98132.25;;;13.32;74.57
19751;BME280;4663;49.120;9.730;2022-09-02T06:58:09;98129.59;;;14.21;73.39
19751;BME280;4663;49.120;9.730;2022-09-02T07:00:36;98122.31;;;13.53;72.55
19751;BME280;4663;49.120;9.730;2022-09-02T07:03:02;98122.91;;;14.85;71.94
19751;BME280;4663;49.120;9.730;2022-09-02T07:05:46;98116.63;;;14.10;69.65
19751;BME280;4663;49.120;9.730;2022-09-02T07:08:11;98118.00;;;15.27;69.67
19751;BME280;4663;49.120;9.730;2022-09-02T07:10:38;98122.47;;;15.01;68.40
19751;BME280;4663;49.120;9.730;2022-09-02T07:13:05;98109.44;;;15.76;65.96
19751;BME280;4663;49.120;9.730;2022-09-02T07:15:30;98119.72;;;15.68;66.13
19751;BME280;4663;49.120;9.730;2022-09-02T07:17:56;98126.84;;;16.40;65.65
19751;BME280;4663;49.120;9.730;2022-09-02T07:20:22;98107.75;;;16.65;63.82
19751;BME280;4663;49.120;9.730;2022-09-02T07:22:47;98114.69;;;16.87;63.45
19751;BME280;4663;49.120;9.730;2022-09-02T07:25:14;98101.38;;;17.53;61.81
19751;BME280;4663;49.120;9.730;2022-09-02T07:27:40;98097.19;;;16.94;60.54
19751;BME280;4663;49.120;9.730;2022-09-02T07:30:08;98106.88;;;16.46;61.58
19751;BME280;4663;49.120;9.730;2022-09-02T07:32:34;98102.34;;;16.84;62.23
19751;BME280;4663;49.120;9.730;2022-09-02T07:35:00;98112.41;;;15.68;64.35
19751;BME280;4663;49.120;9.730;2022-09-02T07:37:25;98109.41;;;15.24;64.41
19751;BME280;4663;49.120;9.730;2022-09-02T07:39:51;98105.84;;;15.83;64.28
19751;BME280;4663;49.120;9.730;2022-09-02T07:42:16;98103.91;;;16.22;63.53
19751;BME280;4663;49.120;9.730;2022-09-02T07:44:43;98105.31;;;16.57;62.36
19751;BME280;4663;49.120;9.730;2022-09-02T07:47:09;98094.03;;;16.21;62.92
19751;BME280;4663;49.120;9.730;2022-09-02T07:49:34;98096.28;;;16.38;61.67
19751;BME280;4663;49.120;9.730;2022-09-02T07:52:00;98081.94;;;17.31;60.53
19751;BME280;4663;49.120;9.730;2022-09-02T07:54:26;98076.53;;;18.16;59.40
19751;BME280;4663;49.120;9.730;2022-09-02T07:56:51;98094.78;;;17.05;60.61
19751;BME280;4663;49.120;9.730;2022-09-02T07:59:18;98097.63;;;16.73;60.95
19751;BME280;4663;49.120;9.730;2022-09-02T08:01:46;98084.09;;;18.02;60.46
19751;BME280;4663;49.120;9.730;2022-09-02T08:04:13;98074.75;;;19.18;57.70
19751;BME280;4663;49.120;9.730;2022-09-02T08:06:38;98072.56;;;19.44;56.81
19751;BME280;4663;49.120;9.730;2022-09-02T08:09:06;98080.16;;;18.77;58.07
19751;BME280;4663;49.120;9.730;2022-09-02T08:11:38;98095.44;;;18.42;58.90
19751;BME280;4663;49.120;9.730;2022-09-02T08:14:09;98063.31;;;19.21;56.12
19751;BME280;4663;49.120;9.730;2022-09-02T08:16:36;98063.25;;;18.44;55.98
19751;BME280;4663;49.120;9.730;2022-09-02T08:19:03;98057.03;;;19.79;54.63
19751;BME280;4663;49.120;9.730;2022-09-02T08:21:29;98062.41;;;19.56;54.54
19751;BME280;4663;49.120;9.730;2022-09-02T08:23:54;98066.53;;;20.57;54.30
19751;BME280;4663;49.120;9.730;2022-09-02T08:26:21;98064.16;;;21.22;53.17
19751;BME280;4663;49.120;9.730;2022-09-02T08:28:47;98071.44;;;21.11;52.81
19751;BME280;4663;49.120;9.730;2022-09-02T08:31:12;98057.50;;;21.35;52.05
19751;BME280;4663;49.120;9.730;2022-09-02T08:33:38;98059.22;;;21.69;51.50
19751;BME280;4663;49.120;9.730;2022-09-02T08:36:06;98056.09;;;20.19;52.85
19751;BME280;4663;49.120;9.730;2022-09-02T08:38:34;98050.19;;;20.79;52.00
19751;BME280;4663;49.120;9.730;2022-09-02T08:40:59;98040.91;;;19.48;52.12
19751;BME280;4663;49.120;9.730;2022-09-02T08:43:33;98063.75;;;20.69;52.99
19751;BME280;4663;49.120;9.730;2022-09-02T08:46:05;98025.19;;;21.42;49.60
19751;BME280;4663;49.120;9.730;2022-09-02T08:48:39;98031.72;;;21.19;49.97
19751;BME280;4663;49.120;9.730;2022-09-02T08:51:17;98029.50;;;20.71;49.18
19751;BME280;4663;49.120;9.730;2022-09-02T08:56:23;98020.56;;;20.81;49.53
19751;BME280;4663;49.120;9.730;2022-09-02T08:58:51;98050.09;;;22.56;49.37
19751;BME280;4663;49.120;9.730;2022-09-02T09:01:29;98035.50;;;23.09;48.13
19751;BME280;4663;49.120;9.730;2022-09-02T09:09:43;98007.44;;;21.28;48.40
19751;BME280;4663;49.120;9.730;2022-09-02T09:17:57;98005.50;;;21.84;48.49
19751;BME280;4663;49.120;9.730;2022-09-02T09:20:26;98009.47;;;21.15;47.91
19751;BME280;4663;49.120;9.730;2022-09-02T09:22:58;98006.00;;;20.41;49.56
19751;BME280;4663;49.120;9.730;2022-09-02T09:25:26;98003.19;;;20.53;49.20
19751;BME280;4663;49.120;9.730;2022-09-02T09:27:58;97998.19;;;21.62;48.12
19751;BME280;4663;49.120;9.730;2022-09-02T09:30:25;98009.94;;;21.07;47.97
19751;BME280;4663;49.120;9.730;2022-09-02T09:32:56;97977.22;;;20.78;46.04
19751;BME280;4663;49.120;9.730;2022-09-02T09:35:23;97974.66;;;20.71;46.48
19751;BME280;4663;49.120;9.730;2022-09-02T09:37:53;97980.84;;;21.89;46.04
19751;BME280;4663;49.120;9.730;2022-09-02T09:45:43;97961.69;;;22.91;43.67
19751;BME280;4663;49.120;9.730;2022-09-02T09:50:37;97966.56;;;23.58;43.56
19751;BME280;4663;49.120;9.730;2022-09-02T09:58:49;97947.19;;;21.16;45.01
19751;BME280;4663;49.120;9.730;2022-09-02T10:12:12;97980.50;;;21.25;45.14
19751;BME280;4663;49.120;9.730;2022-09-02T10:14:42;97969.72;;;22.06;44.71
19751;BME280;4663;49.120;9.730;2022-09-02T10:23:02;97929.88;;;20.88;43.66
19751;BME280;4663;49.120;9.730;2022-09-02T10:25:54;97940.22;;;20.81;43.83
19751;BME280;4663;49.120;9.730;2022-09-02T10:45:58;97910.63;;;20.38;43.69
19751;BME280;4663;49.120;9.730;2022-09-02T10:56:40;97904.50;;;20.75;44.55
19751;BME280;4663;49.120;9.730;2022-09-02T10:59:22;97908.97;;;22.51;43.25
19751;BME280;4663;49.120;9.730;2022-09-02T11:04:40;97904.16;;;21.82;43.98
19751;BME280;4663;49.120;9.730;2022-09-02T11:07:15;97896.19;;;22.18;43.15
19751;BME280;4663;49.120;9.730;2022-09-02T11:09:55;97892.78;;;22.06;42.18
19751;BME280;4663;49.120;9.730;2022-09-02T11:12:25;97900.88;;;22.87;42.93
19751;BME280;4663;49.120;9.730;2022-09-02T11:18:05;97857.66;;;22.08;41.74
19751;BME280;4663;49.120;9.730;2022-09-02T11:20:46;97897.09;;;22.40;42.61
19751;BME280;4663;49.120;9.730;2022-09-02T11:26:03;97873.47;;;23.29;42.04
19751;BME280;4663;49.120;9.730;2022-09-02T11:28:56;97878.41;;;23.32;41.78
19751;BME280;4663;49.120;9.730;2022-09-02T11:31:39;97868.41;;;22.89;42.24
19751;BME280;4663;49.120;9.730;2022-09-02T11:36:39;97871.16;;;22.84;42.08
19751;BME280;4663;49.120;9.730;2022-09-02T11:44:52;97869.59;;;23.19;42.39
19751;BME280;4663;49.120;9.730;2022-09-02T11:55:16;97832.84;;;21.22;42.55
19751;BME280;4663;49.120;9.730;2022-09-02T11:57:54;97841.84;;;20.39;45.20
19751;BME280;4663;49.120;9.730;2022-09-02T12:00:35;97841.09;;;20.94;43.81
19751;BME280;4663;49.120;9.730;2022-09-02T12:03:25;97835.84;;;20.43;43.63
19751;BME280;4663;49.120;9.730;2022-09-02T12:06:06;97846.13;;;20.30;44.48
19751;BME280;4663;49.120;9.730;2022-09-02T12:11:05;97829.38;;;19.87;44.63
19751;BME280;4663;49.120;9.730;2022-09-02T12:13:48;97850.25;;;20.10;44.96
19751;BME280;4663;49.120;9.730;2022-09-02T12:21:24;97844.59;;;20.89;43.43
19751;BME280;4663;49.120;9.730;2022-09-02T12:26:29;97843.75;;;19.77;44.76
19751;BME280;4663;49.120;9.730;2022-09-02T12:31:52;97839.81;;;20.52;45.22
19751;BME280;4663;49.120;9.730;2022-09-02T12:46:53;97796.31;;;19.94;44.84
19751;BME280;4663;49.120;9.730;2022-09-02T12:57:47;97806.47;;;19.36;45.58
19751;BME280;4663;49.120;9.730;2022-09-02T13:23:40;97767.00;;;19.32;44.88
19751;BME280;4663;49.120;9.730;2022-09-02T13:26:20;97775.69;;;19.46;45.27
19751;BME280;4663;49.120;9.730;2022-09-02T13:31:28;97763.91;;;20.30;44.25
19751;BME280;4663;49.120;9.730;2022-09-02T13:34:06;97761.66;;;20.72;44.61
19751;BME280;4663;49.120;9.730;2022-09-02T13:36:36;97753.53;;;20.60;43.96
19751;BME280;4663;49.120;9.730;2022-09-02T13:39:18;97749.31;;;20.74;43.66
19751;BME280;4663;49.120;9.730;2022-09-02T13:41:44;97745.56;;;20.58;43.63
19751;BME280;4663;49.120;9.730;2022-09-02T13:44:13;97747.66;;;19.56;44.60
19751;BME280;4663;49.120;9.730;2022-09-02T13:47:00;97757.97;;;19.94;45.06
19751;BME280;4663;49.120;9.730;2022-09-02T13:49:31;97764.09;;;20.46;44.53
19751;BME280;4663;49.120;9.730;2022-09-02T13:51:58;97739.47;;;19.05;45.17
19751;BME280;4663;49.120;9.730;2022-09-02T13:54:34;97747.00;;;19.32;45.38
19751;BME280;4663;49.120;9.730;2022-09-02T13:57:03;97749.56;;;19.78;44.59
19751;BME280;4663;49.120;9.730;2022-09-02T13:59:51;97755.69;;;20.30;44.50
19751;BME280;4663;49.120;9.730;2022-09-02T14:02:35;97744.78;;;19.90;44.67
19751;BME280;4663;49.120;9.730;2022-09-02T14:05:09;97725.91;;;19.49;44.59
19751;BME280;4663;49.120;9.730;2022-09-02T14:07:40;97731.16;;;19.73;44.62
19751;BME280;4663;49.120;9.730;2022-09-02T14:10:10;97738.09;;;19.98;44.96
19751;BME280;4663;49.120;9.730;2022-09-02T14:12:38;97729.25;;;19.74;44.60
19751;BME280;4663;49.120;9.730;2022-09-02T14:15:05;97730.47;;;19.83;44.31
19751;BME280;4663;49.120;9.730;2022-09-02T14:17:31;97724.16;;;19.60;44.96
19751;BME280;4663;49.120;9.730;2022-09-02T14:22:40;97717.41;;;19.90;44.93
19751;BME280;4663;49.120;9.730;2022-09-02T14:25:12;97706.09;;;19.82;44.79
19751;BME280;4663;49.120;9.730;2022-09-02T14:27:39;97712.47;;;19.87;45.28
19751;BME280;4663;49.120;9.730;2022-09-02T14:30:05;97717.41;;;19.90;45.72
19751;BME280;4663;49.120;9.730;2022-09-02T14:32:34;97708.31;;;19.62;45.49
19751;BME280;4663;49.120;9.730;2022-09-02T14:37:55;97695.19;;;19.42;45.18
19751;BME280;4663;49.120;9.730;2022-09-02T14:40:37;97691.94;;;19.45;45.65
19751;BME280;4663;49.120;9.730;2022-09-02T14:43:11;97696.41;;;19.51;46.13
19751;BME280;4663;49.120;9.730;2022-09-02T14:45:39;97680.22;;;19.72;45.37
19751;BME280;4663;49.120;9.730;2022-09-02T14:50:44;97688.50;;;19.55;45.59
19751;BME280;4663;49.120;9.730;2022-09-02T14:53:10;97678.59;;;19.71;45.41
19751;BME280;4663;49.120;9.730;2022-09-02T14:55:48;97668.47;;;19.72;45.61
19751;BME280;4663;49.120;9.730;2022-09-02T14:58:17;97680.19;;;19.10;46.76
19751;BME280;4663;49.120;9.730;2022-09-02T15:00:47;97674.41;;;19.24;46.01
19751;BME280;4663;49.120;9.730;2022-09-02T15:03:16;97666.19;;;19.24;45.78
19751;BME280;4663;49.120;9.730;2022-09-02T15:05:42;97656.81;;;19.37;45.34
19751;BME280;4663;49.120;9.730;2022-09-02T15:08:08;97668.59;;;19.20;46.88
19751;BME280;4663;49.120;9.730;2022-09-02T15:10:34;97664.44;;;19.18;46.07
19751;BME280;4663;49.120;9.730;2022-09-02T15:13:00;97653.41;;;18.73;45.99
19751;BME280;4663;49.120;9.730;2022-09-02T15:15:25;97655.84;;;18.40;46.35
19751;BME280;4663;49.120;9.730;2022-09-02T15:17:52;97670.28;;;18.70;46.33
19751;BME280;4663;49.120;9.730;2022-09-02T15:20:17;97663.19;;;18.69;46.67
19751;BME280;4663;49.120;9.730;2022-09-02T15:22:43;97664.00;;;18.86;46.74
19751;BME280;4663;49.120;9.730;2022-09-02T15:25:09;97655.63;;;18.13;47.38
19751;BME280;4663;49.120;9.730;2022-09-02T15:27:35;97665.16;;;18.73;47.21
19751;BME280;4663;49.120;9.730;2022-09-02T15:30:01;97658.53;;;18.69;46.78
19751;BME280;4663;49.120;9.730;2022-09-02T15:32:26;97664.47;;;18.83;46.62
19751;BME280;4663;49.120;9.730;2022-09-02T15:34:52;97660.47;;;18.57;47.03
19751;BME280;4663;49.120;9.730;2022-09-02T15:37:18;97679.59;;;18.86;47.90
19751;BME280;4663;49.120;9.730;2022-09-02T15:39:43;97670.78;;;19.01;47.20
19751;BME280;4663;49.120;9.730;2022-09-02T15:42:09;97673.78;;;18.82;47.41
19751;BME280;4663;49.120;9.730;2022-09-02T15:44:34;97669.38;;;18.81;47.04
19751;BME280;4663;49.120;9.730;2022-09-02T15:46:59;97666.72;;;18.86;46.67
19751;BME280;4663;49.120;9.730;2022-09-02T15:49:25;97670.09;;;18.42;47.61
19751;BME280;4663;49.120;9.730;2022-09-02T15:51:51;97659.66;;;18.39;47.27
19751;BME280;4663;49.120;9.730;2022-09-02T15:54:19;97671.44;;;18.74;47.02
19751;BME280;4663;49.120;9.730;2022-09-02T15:56:46;97659.00;;;18.83;47.04
19751;BME280;4663;49.120;9.730;2022-09-02T15:59:12;97658.34;;;18.93;47.28
19751;BME280;4663;49.120;9.730;2022-09-02T16:01:40;97677.59;;;18.81;47.35
19751;BME280;4663;49.120;9.730;2022-09-02T16:04:06;97658.22;;;18.83;47.45
19751;BME280;4663;49.120;9.730;2022-09-02T16:06:34;97664.00;;;18.86;47.55
19751;BME280;4663;49.120;9.730;2022-09-02T16:09:06;97664.00;;;18.86;47.38
19751;BME280;4663;49.120;9.730;2022-09-02T16:11:32;97665.56;;;18.82;47.12
19751;BME280;4663;49.120;9.730;2022-09-02T16:13:57;97659.34;;;18.87;46.94